sensor_id;sensor_type;location;lat;lon;timestamp;pressure;altitude;pressure_sealevel;temperature;humidity
19447;BME280;9862;49.462;11.054;2023-11-21T00:00:13;97451.50;;;10.71;100.00
19447;BME280;9862;49.462;11.054;2023-11-21T00:02:41;97439.47;;;10.80;100.00
19447;BME280;9862;49.462;11.054;2023-11-21T00:05:08;97438.72;;;10.92;100.00
19447;BME280;9862;49.462;11.054;2023-11-21T00:07:35;97447.00;;;11.02;100.00
19447;BME280;9862;49.462;11.054;2023-11-21T00:10:04;97443.06;;;11.04;100.00
19447;BME280;9862;49.462;11.054;2023-11-21T00:12:32;97448.97;;;11.06;100.00
19447;BME280;9862;49.462;11.054;2023-11-21T00:14:58;97451.16;;;11.09;100.00
19447;BME280;9862;49.462;11.054;2023-11-21T00:17:25;97453.44;;;11.24;100.00
19447;BME280;9862;49.462;11.054;2023-11-21T00:19:53;97460.13;;;11.15;100.00
19447;BME280;9862;49.462;11.054;2023-11-21T00:22:20;97453.16;;;11.14;100.00
19447;BME280;9862;49.462;11.054;2023-11-21T00:24:47;97457.44;;;11.15;100.00
19447;BME280;9862;49.462;11.054;2023-11-21T00:27:17;97459.22;;;11.21;100.00
19447;BME280;9862;49.462;11.054;2023-11-21T00:29:43;97452.97;;;11.27;100.00
19447;BME280;9862;49.462;11.054;2023-11-21T00:32:10;97449.63;;;11.32;100.00
19447;BME280;9862;49.462;11.054;2023-11-21T00:34:37;97452.97;;;11.27;100.00
19447;BME280;9862;49.462;11.054;2023-11-21T00:37:03;97456.69;;;11.26;100.00
19447;BME280;9862;49.462;11.054;2023-11-21T00:39:31;97442.31;;;11.27;100.00
19447;BME280;9862;49.462;11.054;2023-11-21T00:41:58;97449.25;;;11.28;100.00
19447;BME280;9862;49.462;11.054;2023-11-21T00:44:27;97441.88;;;11.30;100.00
19447;BME280;9862;49.462;11.054;2023-11-21T00:46:54;97447.22;;;11.30;100.00
19447;BME280;9862;49.462;11.054;2023-11-21T00:49:21;97429.13;;;11.32;100.00
19447;BME280;9862;49.462;11.054;2023-11-21T00:51:48;97442.31;;;11.27;100.00
19447;BME280;9862;49.462;11.054;2023-11-21T00:54:15;97439.88;;;11.26;100.00
19447;BME280;9862;49.462;11.054;2023-11-21T00:56:42;97445.59;;;11.29;100.00
19447;BME280;9862;49.462;11.054;2023-11-21T00:59:10;97443.50;;;11.31;100.00
19447;BME280;9862;49.462;11.054;2023-11-21T01:01:39;97450.44;;;11.32;100.00
19447;BME280;9862;49.462;11.054;2023-11-21T01:04:06;97459.91;;;11.28;100.00
19447;BME280;9862;49.462;11.054;2023-11-21T01:06:33;97454.25;;;11.25;100.00
19447;BME280;9862;49.462;11.054;2023-11-21T01:09:00;97446.59;;;11.28;100.00
19447;BME280;9862;49.462;11.054;2023-11-21T01:11:26;97458.44;;;11.32;100.00
19447;BME280;9862;49.462;11.054;2023-11-21T01:13:53;97454.16;;;11.31;100.00
19447;BME280;9862;49.462;11.054;2023-11-21T01:16:20;97455.69;;;11.39;100.00
19447;BME280;9862;49.462;11.054;2023-11-21T01:18:49;97461.03;;;11.39;100.00
19447;BME280;9862;49.462;11.054;2023-11-21T01:21:15;97451.59;;;11.36;100.00
19447;BME280;9862;49.462;11.054;2023-11-21T01:23:43;97457.31;;;11.40;100.00
19447;BME280;9862;49.462;11.054;2023-11-21T01:26:09;97459.91;;;11.28;100.00
19447;BME280;9862;49.462;11.054;2023-11-21T01:28:36;97453.59;;;11.29;100.00
19447;BME280;9862;49.462;11.054;2023-11-21T01:31:03;97460.53;;;11.30;100.00
19447;BME280;9862;49.462;11.054;2023-11-21T01:33:30;97462.47;;;11.23;100.00
19447;BME280;9862;49.462;11.054;2023-11-21T01:35:58;97462.31;;;11.18;100.00
19447;BME280;9862;49.462;11.054;2023-11-21T01:38:25;97459.84;;;11.05;100.00
19447;BME280;9862;49.462;11.054;2023-11-21T01:40:52;97461.47;;;11.06;100.00
19447;BME280;9862;49.462;11.054;2023-11-21T01:43:19;97453.97;;;10.84;100.00
19447;BME280;9862;49.462;11.054;2023-11-21T01:45:45;97446.81;;;10.85;100.00
19447;BME280;9862;49.462;11.054;2023-11-21T01:48:13;97447.09;;;10.77;100.00
19447;BME280;9862;49.462;11.054;2023-11-21T01:50:42;97442.66;;;10.71;100.00
19447;BME280;9862;49.462;11.054;2023-11-21T01:53:13;97438.47;;;10.81;100.00
19447;BME280;9862;49.462;11.054;2023-11-21T01:55:40;97435.34;;;10.84;100.00
19447;BME280;9862;49.462;11.054;2023-11-21T01:58:10;97431.03;;;11.02;100.00
19447;BME280;9862;49.462;11.054;2023-11-21T02:00:38;97426.72;;;11.01;100.00
19447;BME280;9862;49.462;11.054;2023-11-21T02:03:05;97425.81;;;11.07;100.00
19447;BME280;9862;49.462;11.054;2023-11-21T02:05:33;97430.25;;;11.13;100.00
19447;BME280;9862;49.462;11.054;2023-11-21T02:08:01;97430.81;;;11.15;100.00
19447;BME280;9862;49.462;11.054;2023-11-21T02:10:30;97427.13;;;11.16;100.00
19447;BME280;9862;49.462;11.054;2023-11-21T02:12:57;97433.03;;;11.18;100.00
19447;BME280;9862;49.462;11.054;2023-11-21T02:15:25;97423.56;;;11.22;100.00
19447;BME280;9862;49.462;11.054;2023-11-21T02:17:54;97431.78;;;11.21;100.00
19447;BME280;9862;49.462;11.054;2023-11-21T02:20:21;97431.97;;;11.19;100.00
19447;BME280;9862;49.462;11.054;2023-11-21T02:22:52;97437.78;;;11.16;100.00
19447;BME280;9862;49.462;11.054;2023-11-21T02:25:23;97435.09;;;11.16;100.00
19447;BME280;9862;49.462;11.054;2023-11-21T02:27:50;97430.84;;;11.27;100.00
19447;BME280;9862;49.462;11.054;2023-11-21T02:30:17;97442.69;;;11.31;100.00
19447;BME280;9862;49.462;11.054;2023-11-21T02:32:44;97436.19;;;11.27;100.00
19447;BME280;9862;49.462;11.054;2023-11-21T02:35:12;97435.03;;;11.23;100.00
19447;BME280;9862;49.462;11.054;2023-11-21T02:37:39;97438.25;;;11.25;100.00
19447;BME280;9862;49.462;11.054;2023-11-21T02:40:10;97438.59;;;11.28;100.00
19447;BME280;9862;49.462;11.054;2023-11-21T02:42:39;97436.66;;;11.24;100.00
19447;BME280;9862;49.462;11.054;2023-11-21T02:45:07;97438.59;;;11.28;100.00
19447;BME280;9862;49.462;11.054;2023-11-21T02:47:34;97427.41;;;11.38;100.00
19447;BME280;9862;49.462;11.054;2023-11-21T02:50:01;97429.69;;;11.23;100.00
19447;BME280;9862;49.462;11.054;2023-11-21T02:52:27;97428.66;;;11.24;100.00
19447;BME280;9862;49.462;11.054;2023-11-21T02:54:56;97438.03;;;11.26;100.00
19447;BME280;9862;49.462;11.054;2023-11-21T02:57:24;97426.78;;;11.24;100.00
19447;BME280;9862;49.462;11.054;2023-11-21T02:59:51;97431.16;;;11.18;100.00
19447;BME280;9862;49.462;11.054;2023-11-21T03:02:17;97422.97;;;11.20;100.00
19447;BME280;9862;49.462;11.054;2023-11-21T03:04:44;97424.72;;;11.26;100.00
19447;BME280;9862;49.462;11.054;2023-11-21T03:07:14;97417.75;;;11.25;100.00
19447;BME280;9862;49.462;11.054;2023-11-21T03:09:41;97416.72;;;11.26;100.00
19447;BME280;9862;49.462;11.054;2023-11-21T03:12:10;97422.19;;;11.31;100.00
19447;BME280;9862;49.462;11.054;2023-11-21T03:14:38;97416.88;;;11.31;100.00
19447;BME280;9862;49.462;11.054;2023-11-21T03:17:06;97420.91;;;11.34;100.00
19447;BME280;9862;49.462;11.054;2023-11-21T03:19:37;97422.06;;;11.38;100.00
19447;BME280;9862;49.462;11.054;2023-11-21T03:22:04;97421.72;;;11.34;100.00
19447;BME280;9862;49.462;11.054;2023-11-21T03:24:33;97429.50;;;11.36;100.00
19447;BME280;9862;49.462;11.054;2023-11-21T03:27:02;97422.44;;;11.41;100.00
19447;BME280;9862;49.462;11.054;2023-11-21T03:29:33;97431.34;;;11.47;100.00
19447;BME280;9862;49.462;11.054;2023-11-21T03:32:04;97422.56;;;11.46;100.00
19447;BME280;9862;49.462;11.054;2023-11-21T03:34:33;97430.78;;;11.45;100.00
19447;BME280;9862;49.462;11.054;2023-11-21T03:37:01;97428.94;;;11.45;100.00
19447;BME280;9862;49.462;11.054;2023-11-21T03:39:28;97430.78;;;11.45;100.00
19447;BME280;9862;49.462;11.054;2023-11-21T03:41:55;97424.78;;;11.50;100.00
19447;BME280;9862;49.462;11.054;2023-11-21T03:44:22;97431.84;;;11.56;100.00
19447;BME280;9862;49.462;11.054;2023-11-21T03:46:49;97425.81;;;11.49;100.00
19447;BME280;9862;49.462;11.054;2023-11-21T03:49:17;97430.44;;;11.53;100.00
19447;BME280;9862;49.462;11.054;2023-11-21T03:51:44;97430.00;;;11.56;100.00
19447;BME280;9862;49.462;11.054;2023-11-21T03:54:11;97434.97;;;11.53;100.00
19447;BME280;9862;49.462;11.054;2023-11-21T03:56:40;97438.22;;;11.55;100.00
19447;BME280;9862;49.462;11.054;2023-11-21T03:59:07;97438.94;;;11.62;100.00
19447;BME280;9862;49.462;11.054;2023-11-21T04:01:34;97436.25;;;11.62;100.00
19447;BME280;9862;49.462;11.054;2023-11-21T04:04:01;97442.38;;;11.39;100.00
19447;BME280;9862;49.462;11.054;2023-11-21T04:06:30;97443.19;;;11.39;100.00
19447;BME280;9862;49.462;11.054;2023-11-21T04:08:58;97443.94;;;11.28;100.00
19447;BME280;9862;49.462;11.054;2023-11-21T04:11:26;97451.47;;;11.20;100.00
19447;BME280;9862;49.462;11.054;2023-11-21T04:13:55;97440.25;;;11.29;100.00
19447;BME280;9862;49.462;11.054;2023-11-21T04:16:22;97433.78;;;11.37;100.00
19447;BME280;9862;49.462;11.054;2023-11-21T04:18:49;97439.72;;;11.39;100.00
19447;BME280;9862;49.462;11.054;2023-11-21T04:21:16;97429.88;;;11.51;100.00
19447;BME280;9862;49.462;11.054;2023-11-21T04:23:45;97436.69;;;11.47;100.00
19447;BME280;9862;49.462;11.054;2023-11-21T04:26:13;97437.25;;;11.37;100.00
19447;BME280;9862;49.462;11.054;2023-11-21T04:28:40;97440.59;;;11.33;100.00
19447;BME280;9862;49.462;11.054;2023-11-21T04:31:07;97437.00;;;11.27;100.00
19447;BME280;9862;49.462;11.054;2023-11-21T04:33:34;97431.22;;;11.30;100.00
19447;BME280;9862;49.462;11.054;2023-11-21T04:36:03;97437.13;;;11.32;100.00
19447;BME280;9862;49.462;11.054;2023-11-21T04:38:30;97447.34;;;11.47;100.00
19447;BME280;9862;49.462;11.054;2023-11-21T04:40:59;97457.50;;;11.38;100.00
19447;BME280;9862;49.462;11.054;2023-11-21T04:43:26;97453.22;;;11.37;100.00
19447;BME280;9862;49.462;11.054;2023-11-21T04:45:54;97448.97;;;11.48;100.00
19447;BME280;9862;49.462;11.054;2023-11-21T04:48:21;97446.91;;;11.50;100.00
19447;BME280;9862;49.462;11.054;2023-11-21T04:50:49;97452.34;;;11.43;100.00
19447;BME280;9862;49.462;11.054;2023-11-21T04:53:16;97448.06;;;11.54;100.00
19447;BME280;9862;49.462;11.054;2023-11-21T04:55:43;97456.28;;;11.53;100.00
19447;BME280;9862;49.462;11.054;2023-11-21T04:58:12;97454.91;;;11.62;100.00
19447;BME280;9862;49.462;11.054;2023-11-21T05:00:39;97456.53;;;11.63;100.00
19447;BME280;9862;49.462;11.054;2023-11-21T05:03:06;97456.19;;;11.59;100.00
19447;BME280;9862;49.462;11.054;2023-11-21T05:05:33;97449.13;;;11.65;100.00
19447;BME280;9862;49.462;11.054;2023-11-21T05:08:00;97464.41;;;11.58;100.00
19447;BME280;9862;49.462;11.054;2023-11-21T05:10:27;97461.97;;;11.56;100.00
19447;BME280;9862;49.462;11.054;2023-11-21T05:12:55;97454.59;;;11.58;100.00
19447;BME280;9862;49.462;11.054;2023-11-21T05:15:23;97455.97;;;11.61;100.00
19447;BME280;9862;49.462;11.054;2023-11-21T05:17:50;97456.53;;;11.63;100.00
19447;BME280;9862;49.462;11.054;2023-11-21T05:20:17;97461.41;;;11.66;100.00
19447;BME280;9862;49.462;11.054;2023-11-21T05:22:47;97455.63;;;11.69;100.00
19447;BME280;9862;49.462;11.054;2023-11-21T05:25:15;97464.69;;;11.68;100.00
19447;BME280;9862;49.462;11.054;2023-11-21T05:27:43;97458.50;;;11.67;100.00
19447;BME280;9862;49.462;11.054;2023-11-21T05:30:11;97473.69;;;11.67;100.00
19447;BME280;9862;49.462;11.054;2023-11-21T05:32:40;97466.31;;;11.69;100.00
19447;BME280;9862;49.462;11.054;2023-11-21T05:35:07;97469.53;;;11.71;100.00
19447;BME280;9862;49.462;11.054;2023-11-21T05:37:40;97480.31;;;11.76;100.00
19447;BME280;9862;49.462;11.054;2023-11-21T05:40:09;97481.72;;;11.79;100.00
19447;BME280;9862;49.462;11.054;2023-11-21T05:42:36;97482.53;;;11.79;100.00
19447;BME280;9862;49.462;11.054;2023-11-21T05:45:04;97487.88;;;11.79;100.00
19447;BME280;9862;49.462;11.054;2023-11-21T05:47:36;97492.03;;;11.75;100.00
19447;BME280;9862;49.462;11.054;2023-11-21T05:50:06;97494.84;;;11.80;100.00
19447;BME280;9862;49.462;11.054;2023-11-21T05:52:36;97499.72;;;11.83;100.00
19447;BME280;9862;49.462;11.054;2023-11-21T05:55:03;97492.28;;;11.85;100.00
19447;BME280;9862;49.462;11.054;2023-11-21T05:57:32;97501.81;;;11.81;100.00
19447;BME280;9862;49.462;11.054;2023-11-21T05:59:59;97496.91;;;11.78;100.00
19447;BME280;9862;49.462;11.054;2023-11-21T06:02:29;97495.97;;;11.72;100.00
19447;BME280;9862;49.462;11.054;2023-11-21T06:04:56;97496.19;;;11.71;100.00
19447;BME280;9862;49.462;11.054;2023-11-21T06:07:24;97509.63;;;11.76;100.00
19447;BME280;9862;49.462;11.054;2023-11-21T06:09:51;97499.22;;;11.74;100.00
19447;BME280;9862;49.462;11.054;2023-11-21T06:12:18;97513.72;;;11.79;100.00
19447;BME280;9862;49.462;11.054;2023-11-21T06:14:45;97512.47;;;11.81;100.00
19447;BME280;9862;49.462;11.054;2023-11-21T06:17:14;97509.19;;;11.79;100.00
19447;BME280;9862;49.462;11.054;2023-11-21T06:19:41;97511.44;;;11.82;100.00
19447;BME280;9862;49.462;11.054;2023-11-21T06:22:09;97514.66;;;11.84;100.00
19447;BME280;9862;49.462;11.054;2023-11-21T06:24:37;97513.88;;;11.84;100.00
19447;BME280;9862;49.462;11.054;2023-11-21T06:27:05;97518.38;;;11.83;100.00
19447;BME280;9862;49.462;11.054;2023-11-21T06:29:31;97523.78;;;11.76;100.00
19447;BME280;9862;49.462;11.054;2023-11-21T06:31:58;97521.00;;;11.71;100.00
19447;BME280;9862;49.462;11.054;2023-11-21T06:34:25;97519.22;;;11.65;100.00
19447;BME280;9862;49.462;11.054;2023-11-21T06:36:53;97518.41;;;11.65;100.00
19447;BME280;9862;49.462;11.054;2023-11-21T06:39:20;97523.53;;;11.66;100.00
19447;BME280;9862;49.462;11.054;2023-11-21T06:41:50;97530.03;;;11.70;100.00
19447;BME280;9862;49.462;11.054;2023-11-21T06:44:17;97527.72;;;11.74;100.00
19447;BME280;9862;49.462;11.054;2023-11-21T06:46:45;97533.44;;;11.78;100.00
19447;BME280;9862;49.462;11.054;2023-11-21T06:49:12;97532.19;;;11.80;100.00
19447;BME280;9862;49.462;11.054;2023-11-21T06:51:38;97541.09;;;11.86;100.00
19447;BME280;9862;49.462;11.054;2023-11-21T06:54:06;97543.69;;;11.92;100.00
19447;BME280;9862;49.462;11.054;2023-11-21T06:56:33;97539.38;;;11.91;100.00
19447;BME280;9862;49.462;11.054;2023-11-21T06:59:01;97554.81;;;11.89;100.00
19447;BME280;9862;49.462;11.054;2023-11-21T07:01:31;97550.72;;;11.87;100.00
19447;BME280;9862;49.462;11.054;2023-11-21T07:04:04;97552.94;;;11.90;100.00
19447;BME280;9862;49.462;11.054;2023-11-21T07:06:32;97564.34;;;11.97;100.00
19447;BME280;9862;49.462;11.054;2023-11-21T07:08:59;97570.91;;;11.94;100.00
19447;BME280;9862;49.462;11.054;2023-11-21T07:11:27;97573.81;;;11.93;100.00
19447;BME280;9862;49.462;11.054;2023-11-21T07:13:53;97575.22;;;11.95;100.00
19447;BME280;9862;49.462;11.054;2023-11-21T07:16:21;97577.44;;;11.98;100.00
19447;BME280;9862;49.462;11.054;2023-11-21T07:18:49;97585.44;;;11.98;100.00
19447;BME280;9862;49.462;11.054;2023-11-21T07:21:16;97593.44;;;11.98;100.00
19447;BME280;9862;49.462;11.054;2023-11-21T07:23:44;97586.00;;;12.00;100.00
19447;BME280;9862;49.462;11.054;2023-11-21T07:26:11;97598.31;;;12.01;100.00
19447;BME280;9862;49.462;11.054;2023-11-21T07:28:38;97595.06;;;11.99;100.00
19447;BME280;9862;49.462;11.054;2023-11-21T07:31:05;97594.03;;;12.00;100.00
19447;BME280;9862;49.462;11.054;2023-11-21T07:33:33;97598.34;;;12.25;100.00
19447;BME280;9862;49.462;11.054;2023-11-21T07:36:01;97602.75;;;12.19;100.00
19447;BME280;9862;49.462;11.054;2023-11-21T07:38:27;97612.22;;;12.03;100.00
19447;BME280;9862;49.462;11.054;2023-11-21T07:40:54;97603.28;;;11.98;100.00
19447;BME280;9862;49.462;11.054;2023-11-21T07:43:22;97610.34;;;11.92;100.00
19447;BME280;9862;49.462;11.054;2023-11-21T07:45:49;97604.53;;;11.95;100.00
19447;BME280;9862;49.462;11.054;2023-11-21T07:48:16;97611.50;;;11.96;100.00
19447;BME280;9862;49.462;11.054;2023-11-21T07:50:44;97610.91;;;11.94;100.00
19447;BME280;9862;49.462;11.054;2023-11-21T07:53:13;97609.28;;;11.93;100.00
19447;BME280;9862;49.462;11.054;2023-11-21T07:55:40;97604.78;;;11.94;100.00
19447;BME280;9862;49.462;11.054;2023-11-21T07:58:07;97613.81;;;11.93;100.00
19447;BME280;9862;49.462;11.054;2023-11-21T08:00:34;97615.22;;;11.95;100.00
19447;BME280;9862;49.462;11.054;2023-11-21T08:03:01;97616.41;;;11.99;100.00
19447;BME280;9862;49.462;11.054;2023-11-21T08:05:28;97612.91;;;11.99;100.00
19447;BME280;9862;49.462;11.054;2023-11-21T08:07:56;97620.03;;;12.17;100.00
19447;BME280;9862;49.462;11.054;2023-11-21T08:10:23;97627.41;;;12.03;100.00
19447;BME280;9862;49.462;11.054;2023-11-21T08:12:50;97618.84;;;12.01;100.00
19447;BME280;9862;49.462;11.054;2023-11-21T08:15:18;97623.09;;;11.90;100.00
19447;BME280;9862;49.462;11.054;2023-11-21T08:17:46;97629.59;;;11.94;100.00
19447;BME280;9862;49.462;11.054;2023-11-21T08:20:15;97630.47;;;12.07;100.00
19447;BME280;9862;49.462;11.054;2023-11-21T08:22:43;97632.06;;;12.08;100.00
19447;BME280;9862;49.462;11.054;2023-11-21T08:25:12;97629.03;;;12.04;100.00
19447;BME280;9862;49.462;11.054;2023-11-21T08:27:39;97625.88;;;11.95;100.00
19447;BME280;9862;49.462;11.054;2023-11-21T08:30:06;97626.81;;;11.89;100.00
19447;BME280;9862;49.462;11.054;2023-11-21T08:32:34;97618.91;;;11.94;100.00
19447;BME280;9862;49.462;11.054;2023-11-21T08:35:01;97613.72;;;11.99;100.00
19447;BME280;9862;49.462;11.054;2023-11-21T08:37:27;97615.69;;;12.04;100.00
19447;BME280;9862;49.462;11.054;2023-11-21T08:39:57;97625.56;;;12.03;100.00
19447;BME280;9862;49.462;11.054;2023-11-21T08:42:27;97620.38;;;12.09;100.00
19447;BME280;9862;49.462;11.054;2023-11-21T08:44:56;97620.72;;;12.12;100.00
19447;BME280;9862;49.462;11.054;2023-11-21T08:47:23;97630.72;;;12.17;100.00
19447;BME280;9862;49.462;11.054;2023-11-21T08:49:52;97628.16;;;12.22;100.00
19447;BME280;9862;49.462;11.054;2023-11-21T08:52:19;97636.50;;;12.25;100.00
19447;BME280;9862;49.462;11.054;2023-11-21T08:54:48;97644.50;;;12.25;100.00
19447;BME280;9862;49.462;11.054;2023-11-21T08:57:21;97646.38;;;12.25;100.00
19447;BME280;9862;49.462;11.054;2023-11-21T08:59:49;97646.63;;;12.35;100.00
19447;BME280;9862;49.462;11.054;2023-11-21T09:02:20;97647.22;;;12.37;100.00
19447;BME280;9862;49.462;11.054;2023-11-21T09:04:48;97656.38;;;12.29;100.00
19447;BME280;9862;49.462;11.054;2023-11-21T09:07:16;97649.09;;;12.37;100.00
19447;BME280;9862;49.462;11.054;2023-11-21T09:09:44;97659.72;;;12.25;100.00
19447;BME280;9862;49.462;11.054;2023-11-21T09:12:11;97660.88;;;12.17;100.00
19447;BME280;9862;49.462;11.054;2023-11-21T09:14:38;97670.59;;;12.12;100.00
19447;BME280;9862;49.462;11.054;2023-11-21T09:17:06;97678.94;;;12.15;100.00
19447;BME280;9862;49.462;11.054;2023-11-21T09:19:36;97671.16;;;12.14;100.00
19447;BME280;9862;49.462;11.054;2023-11-21T09:22:03;97669.78;;;12.23;100.00
19447;BME280;9862;49.462;11.054;2023-11-21T09:24:30;97674.31;;;12.22;100.00
19447;BME280;9862;49.462;11.054;2023-11-21T09:26:57;97681.84;;;12.14;100.00
19447;BME280;9862;49.462;11.054;2023-11-21T09:29:25;97685.03;;;12.04;100.00
19447;BME280;9862;49.462;11.054;2023-11-21T09:31:52;97689.72;;;12.09;100.00
19447;BME280;9862;49.462;11.054;2023-11-21T09:34:22;97688.78;;;12.15;100.00
19447;BME280;9862;49.462;11.054;2023-11-21T09:36:48;97688.22;;;12.13;100.00
19447;BME280;9862;49.462;11.054;2023-11-21T09:39:16;97689.97;;;12.19;100.00
19447;BME280;9862;49.462;11.054;2023-11-21T09:41:46;97689.44;;;12.28;100.00
19447;BME280;9862;49.462;11.054;2023-11-21T09:44:17;97687.03;;;12.39;100.00
19447;BME280;9862;49.462;11.054;2023-11-21T09:46:47;97692.69;;;12.42;100.00
19447;BME280;9862;49.462;11.054;2023-11-21T09:49:15;97686.31;;;12.43;100.00
19447;BME280;9862;49.462;11.054;2023-11-21T09:51:46;97692.09;;;12.28;100.00
19447;BME280;9862;49.462;11.054;2023-11-21T09:54:15;97693.53;;;12.13;100.00
19447;BME280;9862;49.462;11.054;2023-11-21T09:56:44;97688.09;;;12.08;100.00
19447;BME280;9862;49.462;11.054;2023-11-21T09:59:14;97683.66;;;12.01;100.00
19447;BME280;9862;49.462;11.054;2023-11-21T10:01:42;97689.56;;;12.03;100.00
19447;BME280;9862;49.462;11.054;2023-11-21T10:04:10;97680.53;;;12.04;100.00
19447;BME280;9862;49.462;11.054;2023-11-21T10:06:39;97683.72;;;11.95;100.00
19447;BME280;9862;49.462;11.054;2023-11-21T10:09:09;97686.09;;;12.03;100.00
19447;BME280;9862;49.462;11.054;2023-11-21T10:11:40;97686.91;;;12.03;100.00
19447;BME280;9862;49.462;11.054;2023-11-21T10:14:09;97687.91;;;12.21;100.00
19447;BME280;9862;49.462;11.054;2023-11-21T10:16:38;97684.19;;;12.22;100.00
19447;BME280;9862;49.462;11.054;2023-11-21T10:19:10;97678.72;;;12.17;100.00
19447;BME280;9862;49.462;11.054;2023-11-21T10:21:39;97680.41;;;11.99;100.00
19447;BME280;9862;49.462;11.054;2023-11-21T10:24:08;97685.16;;;11.97;100.00
19447;BME280;9862;49.462;11.054;2023-11-21T10:26:35;97687.03;;;12.09;100.00
19447;BME280;9862;49.462;11.054;2023-11-21T10:29:03;97685.22;;;12.21;100.00
19447;BME280;9862;49.462;11.054;2023-11-21T10:31:30;97688.47;;;12.23;100.00
19447;BME280;9862;49.462;11.054;2023-11-21T10:34:12;97684.88;;;12.17;100.00
19447;BME280;9862;49.462;11.054;2023-11-21T10:36:39;97682.78;;;12.19;100.00
19447;BME280;9862;49.462;11.054;2023-11-21T10:39:07;97680.22;;;12.13;100.00
19447;BME280;9862;49.462;11.054;2023-11-21T10:41:35;97681.13;;;12.07;100.00
19447;BME280;9862;49.462;11.054;2023-11-21T10:44:02;97695.13;;;12.02;100.00
19447;BME280;9862;49.462;11.054;2023-11-21T10:46:32;97687.16;;;12.14;100.00
19447;BME280;9862;49.462;11.054;2023-11-21T10:48:59;97689.16;;;12.18;100.00
19447;BME280;9862;49.462;11.054;2023-11-21T10:51:27;97698.38;;;12.34;100.00
19447;BME280;9862;49.462;11.054;2023-11-21T10:53:54;97697.06;;;12.25;100.00
19447;BME280;9862;49.462;11.054;2023-11-21T10:56:25;97702.56;;;12.00;100.00
19447;BME280;9862;49.462;11.054;2023-11-21T10:58:54;97701.34;;;11.96;100.00
19447;BME280;9862;49.462;11.054;2023-11-21T11:01:22;97710.03;;;11.91;100.00
19447;BME280;9862;49.462;11.054;2023-11-21T11:03:52;97700.34;;;11.97;100.00
19447;BME280;9862;49.462;11.054;2023-11-21T11:06:21;97700.00;;;12.05;100.00
19447;BME280;9862;49.462;11.054;2023-11-21T11:08:49;97691.84;;;12.18;100.00
19447;BME280;9862;49.462;11.054;2023-11-21T11:11:17;97699.28;;;12.28;100.00
19447;BME280;9862;49.462;11.054;2023-11-21T11:13:46;97696.63;;;12.28;100.00
19447;BME280;9862;49.462;11.054;2023-11-21T11:16:13;97701.66;;;12.36;100.00
19447;BME280;9862;49.462;11.054;2023-11-21T11:18:43;97697.13;;;12.48;100.00
19447;BME280;9862;49.462;11.054;2023-11-21T11:21:25;97701.09;;;12.16;100.00
19447;BME280;9862;49.462;11.054;2023-11-21T11:24:05;97698.53;;;12.09;100.00
19447;BME280;9862;49.462;11.054;2023-11-21T11:26:44;97697.13;;;12.07;100.00
19447;BME280;9862;49.462;11.054;2023-11-21T11:29:21;97695.59;;;11.99;100.00
19447;BME280;9862;49.462;11.054;2023-11-21T11:31:58;97693.81;;;11.93;100.00
19447;BME280;9862;49.462;11.054;2023-11-21T11:34:33;97698.22;;;11.87;100.00
19447;BME280;9862;49.462;11.054;2023-11-21T11:37:03;97706.78;;;11.89;100.00
19447;BME280;9862;49.462;11.054;2023-11-21T11:39:35;97697.38;;;11.87;100.00
19447;BME280;9862;49.462;11.054;2023-11-21T11:42:04;97706.63;;;11.84;100.00
19447;BME280;9862;49.462;11.054;2023-11-21T11:44:49;97705.06;;;11.95;100.00
19447;BME280;9862;49.462;11.054;2023-11-21T11:47:23;97700.25;;;11.85;100.00
19447;BME280;9862;49.462;11.054;2023-11-21T11:49:59;97703.81;;;11.79;100.00
19447;BME280;9862;49.462;11.054;2023-11-21T11:52:33;97697.16;;;11.88;100.00
19447;BME280;9862;49.462;11.054;2023-11-21T11:55:02;97704.63;;;11.98;100.00
19447;BME280;9862;49.462;11.054;2023-11-21T11:57:30;97702.81;;;11.80;100.00
19447;BME280;9862;49.462;11.054;2023-11-21T12:00:12;97706.50;;;11.61;100.00
19447;BME280;9862;49.462;11.054;2023-11-21T12:02:41;97711.81;;;11.42;100.00
19447;BME280;9862;49.462;11.054;2023-11-21T12:05:09;97710.56;;;11.45;100.00
19447;BME280;9862;49.462;11.054;2023-11-21T12:07:42;97716.69;;;11.45;100.00
19447;BME280;9862;49.462;11.054;2023-11-21T12:10:11;97709.22;;;11.54;100.00
19447;BME280;9862;49.462;11.054;2023-11-21T12:12:42;97714.03;;;11.64;100.00
19447;BME280;9862;49.462;11.054;2023-11-21T12:15:11;97718.25;;;11.71;100.00
19447;BME280;9862;49.462;11.054;2023-11-21T12:17:38;97725.16;;;11.79;100.00
19447;BME280;9862;49.462;11.054;2023-11-21T12:20:06;97714.47;;;11.79;100.00
19447;BME280;9862;49.462;11.054;2023-11-21T12:22:41;97717.34;;;11.96;100.00
19447;BME280;9862;49.462;11.054;2023-11-21T12:25:08;97712.19;;;12.01;100.00
19447;BME280;9862;49.462;11.054;2023-11-21T12:27:35;97715.84;;;11.88;100.00
19447;BME280;9862;49.462;11.054;2023-11-21T12:30:01;97718.81;;;11.80;100.00
19447;BME280;9862;49.462;11.054;2023-11-21T12:32:31;97719.66;;;11.74;100.00
19447;BME280;9862;49.462;11.054;2023-11-21T12:34:57;97728.03;;;11.78;100.00
19447;BME280;9862;49.462;11.054;2023-11-21T12:37:24;97725.00;;;11.74;100.00
19447;BME280;9862;49.462;11.054;2023-11-21T12:39:53;97723.66;;;11.65;100.00
19447;BME280;9862;49.462;11.054;2023-11-21T12:42:24;97729.06;;;11.76;100.00
19447;BME280;9862;49.462;11.054;2023-11-21T12:45:08;97731.69;;;11.83;100.00
19447;BME280;9862;49.462;11.054;2023-11-21T12:47:42;97735.53;;;11.87;100.00
19447;BME280;9862;49.462;11.054;2023-11-21T12:50:09;97734.28;;;11.90;100.00
19447;BME280;9862;49.462;11.054;2023-11-21T12:52:41;97742.34;;;11.83;100.00
19447;BME280;9862;49.462;11.054;2023-11-21T12:55:13;97737.56;;;11.67;100.00